Time;durP1;ratioP1;P1;durP2;ratioP2;P2;SDS_P1;SDS_P2;PMS_P1;PMS_P2;Temp;Humidity;BMP_temperature;BMP_pressure;BME280_temperature;BME280_humidity;BME280_pressure;Samples;Min_cycle;Max_cycle;Signal;HPM_P1;HPM_P2
2022/09/10 00:01:36;;;;;;;2.97;2.60;;;17.70;1.00;;;;;;4991267;28;20237;-58
2022/09/10 00:04:03;;;;;;;4.00;2.40;;;17.70;1.00;;;;;;4971678;28;20503;-58
2022/09/10 00:06:31;;;;;;;7.60;2.60;;;17.70;1.00;;;;;;4985610;28;20490;-58
2022/09/10 00:08:57;;;;;;;5.23;2.50;;;17.80;1.00;;;;;;4986122;28;20475;-59
2022/09/10 00:11:25;;;;;;;2.73;2.47;;;17.80;1.00;;;;;;4989815;28;20424;-58
2022/09/10 00:13:51;;;;;;;2.50;2.30;;;17.80;1.00;;;;;;4982394;28;20425;-59
2022/09/10 00:16:18;;;;;;;3.40;2.60;;;17.80;1.00;;;;;;4967987;28;20516;-59
2022/09/10 00:18:45;;;;;;;2.60;2.40;;;17.80;1.00;;;;;;4986496;28;20189;-57
2022/09/10 00:21:13;;;;;;;4.27;2.30;;;17.80;1.00;;;;;;4990806;28;20433;-59
2022/09/10 00:23:39;;;;;;;3.77;2.50;;;17.80;1.00;;;;;;4989220;28;20507;-58
2022/09/10 00:26:26;;;;;;;4.23;2.10;;;17.80;1.00;;;;;;4990781;28;20437;-56
2022/09/10 00:28:53;;;;;;;4.30;2.57;;;17.90;1.00;;;;;;4989906;28;20512;-58
2022/09/10 00:31:20;;;;;;;3.60;2.00;;;17.80;1.00;;;;;;4986345;28;20973;-58
2022/09/10 00:33:48;;;;;;;3.03;2.20;;;17.80;1.00;;;;;;4986416;28;20854;-58
2022/09/10 00:36:26;;;;;;;2.80;2.60;;;17.90;1.00;;;;;;4981365;28;20465;-58
2022/09/10 00:38:53;;;;;;;3.00;2.10;;;17.90;1.00;;;;;;4980705;28;20494;-58
2022/09/10 00:41:22;;;;;;;2.73;2.20;;;18.00;1.00;;;;;;4982923;28;21106;-58
2022/09/10 00:43:57;;;;;;;3.10;2.33;;;18.00;1.00;;;;;;4987911;28;20450;-59
2022/09/10 00:46:28;;;;;;;2.30;2.10;;;18.10;1.00;;;;;;4983658;28;20448;-58
2022/09/10 00:48:57;;;;;;;3.37;2.40;;;18.00;1.00;;;;;;4987355;28;20439;-58
2022/09/10 00:51:25;;;;;;;2.43;1.77;;;18.00;1.00;;;;;;4990238;28;20436;-59
2022/09/10 00:53:52;;;;;;;2.50;2.30;;;17.90;1.00;;;;;;4986053;28;20456;-59
2022/09/10 00:56:18;;;;;;;3.10;2.50;;;17.90;1.00;;;;;;4988926;28;20431;-58
2022/09/10 00:58:46;;;;;;;5.20;2.33;;;17.80;1.00;;;;;;4987018;28;20461;-59
2022/09/10 01:01:16;;;;;;;2.97;2.07;;;17.90;1.00;;;;;;4985447;28;20464;-58
2022/09/10 01:03:43;;;;;;;2.17;1.97;;;17.90;1.00;;;;;;4986683;28;20453;-58
2022/09/10 01:06:12;;;;;;;2.67;2.40;;;17.80;1.00;;;;;;4983752;28;20541;-58
2022/09/10 01:08:37;;;;;;;2.43;2.20;;;17.80;1.00;;;;;;4984665;28;20456;-58
2022/09/10 01:11:30;;;;;;;3.20;2.20;;;17.80;1.00;;;;;;4984469;28;20523;-58
2022/09/10 01:14:14;;;;;;;2.20;1.87;;;17.80;1.00;;;;;;4949515;28;20213;-58
2022/09/10 01:16:50;;;;;;;5.90;2.37;;;17.70;1.00;;;;;;4986838;28;20412;-58
2022/09/10 01:19:37;;;;;;;2.70;2.00;;;17.60;1.00;;;;;;4964894;28;20523;-58
2022/09/10 01:22:21;;;;;;;1.80;1.70;;;17.50;1.00;;;;;;4987196;28;20441;-59
2022/09/10 01:24:58;;;;;;;3.43;2.23;;;17.60;1.00;;;;;;4979919;28;20488;-58
2022/09/10 01:27:46;;;;;;;3.13;2.20;;;17.50;1.00;;;;;;4985629;28;20515;-59
2022/09/10 01:30:21;;;;;;;2.77;2.00;;;17.40;1.00;;;;;;4989656;28;20486;-59
2022/09/10 01:32:59;;;;;;;2.87;1.50;;;17.30;1.00;;;;;;4968321;28;20452;-59
2022/09/10 01:35:35;;;;;;;3.00;1.73;;;17.20;1.00;;;;;;4984596;28;20500;-59
2022/09/10 01:38:07;;;;;;;2.43;1.93;;;17.20;1.00;;;;;;4981150;28;20970;-59
2022/09/10 01:40:33;;;;;;;3.63;1.80;;;17.20;1.00;;;;;;4984677;28;20431;-59
2022/09/10 01:43:06;;;;;;;2.30;1.50;;;17.10;1.00;;;;;;4989396;28;20465;-58
2022/09/10 01:46:10;;;;;;;2.30;1.80;;;17.20;1.00;;;;;;4970997;28;20955;-59
2022/09/10 01:48:58;;;;;;;1.77;1.57;;;17.10;1.00;;;;;;4983715;28;20874;-58
2022/09/10 01:51:38;;;;;;;2.03;1.70;;;17.00;1.00;;;;;;4981626;28;20454;-59
2022/09/10 01:54:35;;;;;;;1.60;1.50;;;17.00;1.00;;;;;;4986307;28;20449;-57
2022/09/10 01:57:22;;;;;;;2.33;1.60;;;16.90;1.00;;;;;;4986040;28;20436;-59
2022/09/10 02:00:02;;;;;;;5.33;1.93;;;16.80;1.00;;;;;;4985899;28;20498;-58
2022/09/10 02:02:35;;;;;;;1.90;1.80;;;16.80;1.00;;;;;;4986899;28;20597;-58
2022/09/10 02:05:03;;;;;;;2.43;1.60;;;16.70;1.00;;;;;;4984408;28;20460;-58
2022/09/10 02:07:30;;;;;;;1.70;1.60;;;16.70;1.00;;;;;;4987928;28;20484;-57
2022/09/10 02:09:58;;;;;;;2.30;1.63;;;16.70;1.00;;;;;;4986527;28;20428;-58
2022/09/10 02:12:23;;;;;;;1.93;1.50;;;16.60;1.00;;;;;;4988065;28;20447;-57
2022/09/10 02:14:52;;;;;;;1.97;1.67;;;16.60;1.00;;;;;;4984793;28;20466;-57
2022/09/10 02:17:21;;;;;;;2.77;2.07;;;16.60;1.00;;;;;;4988337;28;20606;-58
2022/09/10 02:19:50;;;;;;;2.50;1.77;;;16.60;1.00;;;;;;4966325;28;20498;-57
2022/09/10 02:22:16;;;;;;;2.20;1.50;;;16.60;1.00;;;;;;4989367;28;20425;-58
2022/09/10 02:24:43;;;;;;;7.50;2.70;;;16.60;1.00;;;;;;4987056;28;20453;-58
2022/09/10 02:27:10;;;;;;;2.90;2.30;;;16.60;1.00;;;;;;4992848;28;20559;-58
2022/09/10 02:29:37;;;;;;;5.47;1.80;;;16.60;1.00;;;;;;4997175;28;20424;-58
2022/09/10 02:32:05;;;;;;;5.03;1.93;;;16.60;1.00;;;;;;4993352;28;20437;-58
2022/09/10 02:34:30;;;;;;;3.57;1.90;;;16.50;1.00;;;;;;4992969;28;20972;-58
2022/09/10 02:36:56;;;;;;;3.80;1.80;;;16.50;1.00;;;;;;4992754;28;20418;-57
2022/09/10 02:39:23;;;;;;;4.00;1.83;;;16.40;1.00;;;;;;4988012;28;20593;-57
2022/09/10 02:41:48;;;;;;;3.67;1.90;;;16.50;1.00;;;;;;4991041;28;20472;-58
2022/09/10 02:44:14;;;;;;;3.13;1.77;;;16.40;1.00;;;;;;4985446;28;20430;-58
2022/09/10 02:46:41;;;;;;;1.80;1.70;;;16.50;1.00;;;;;;4990182;28;20656;-58
2022/09/10 02:49:06;;;;;;;5.47;1.67;;;16.50;1.00;;;;;;4994608;28;20219;-59
2022/09/10 02:51:32;;;;;;;3.60;1.90;;;16.50;1.00;;;;;;4992440;28;20882;-58
2022/09/10 02:53:57;;;;;;;2.27;1.60;;;16.40;1.00;;;;;;4992462;28;20190;-56
2022/09/10 02:56:23;;;;;;;1.53;1.43;;;16.30;1.00;;;;;;4984965;28;20186;-58
2022/09/10 02:58:49;;;;;;;2.50;1.73;;;16.20;1.00;;;;;;4985877;28;20195;-58
2022/09/10 03:01:21;;;;;;;3.53;1.70;;;16.30;1.00;;;;;;4991631;28;20224;-58
2022/09/10 03:03:53;;;;;;;2.93;1.83;;;16.20;1.00;;;;;;4989955;28;20799;-58
2022/09/10 03:06:20;;;;;;;2.80;1.43;;;16.30;1.00;;;;;;4995809;28;20452;-59
2022/09/10 03:08:47;;;;;;;3.77;1.73;;;16.20;1.00;;;;;;4990378;28;20971;-58
2022/09/10 03:11:24;;;;;;;2.87;2.20;;;16.20;1.00;;;;;;4986673;28;20421;-57
2022/09/10 03:13:49;;;;;;;2.00;1.50;;;16.30;1.00;;;;;;4989267;28;20591;-59
2022/09/10 03:16:27;;;;;;;3.70;1.60;;;16.20;1.00;;;;;;4990546;28;20527;-60
2022/09/10 03:18:53;;;;;;;2.53;1.53;;;16.20;1.00;;;;;;4983409;28;20220;-58
2022/09/10 03:21:23;;;;;;;1.90;1.80;;;16.10;1.00;;;;;;4986402;28;20947;-59
2022/09/10 03:23:51;;;;;;;4.10;1.77;;;16.10;1.00;;;;;;4989333;28;20179;-58
2022/09/10 03:26:29;;;;;;;2.70;1.37;;;16.10;1.00;;;;;;4994999;28;20449;-58
2022/09/10 03:28:54;;;;;;;1.60;1.50;;;16.00;1.00;;;;;;4984630;28;20558;-58
2022/09/10 03:31:23;;;;;;;2.87;1.80;;;16.00;1.00;;;;;;4992417;28;20435;-59
2022/09/10 03:33:49;;;;;;;2.97;1.73;;;15.90;1.00;;;;;;4980694;28;20191;-58
2022/09/10 03:36:28;;;;;;;3.93;1.70;;;16.00;1.00;;;;;;4992588;28;20424;-57
2022/09/10 03:38:53;;;;;;;3.30;1.73;;;15.90;1.00;;;;;;4990926;28;20548;-57
2022/09/10 03:41:19;;;;;;;1.57;1.47;;;15.90;1.00;;;;;;4989851;28;20538;-58
2022/09/10 03:43:44;;;;;;;1.90;1.70;;;15.90;1.00;;;;;;4989493;28;20224;-57
2022/09/10 03:46:25;;;;;;;3.20;1.70;;;15.80;1.00;;;;;;4991150;28;20226;-58
2022/09/10 03:48:51;;;;;;;3.47;1.80;;;15.80;1.00;;;;;;4985351;28;20262;-58
2022/09/10 03:51:17;;;;;;;2.00;1.90;;;15.80;1.00;;;;;;4996423;28;20514;-58
2022/09/10 03:53:43;;;;;;;4.03;2.30;;;15.70;1.00;;;;;;4984595;28;20646;-58
2022/09/10 03:56:24;;;;;;;2.33;1.90;;;15.70;1.00;;;;;;4988457;28;20409;-57
2022/09/10 03:58:51;;;;;;;2.30;2.10;;;15.70;1.00;;;;;;4983662;28;20464;-57
2022/09/10 04:01:24;;;;;;;2.30;2.07;;;15.70;1.00;;;;;;4981350;28;20441;-58
2022/09/10 04:03:53;;;;;;;5.73;2.03;;;15.70;1.00;;;;;;4982827;28;20559;-58
2022/09/10 04:06:25;;;;;;;5.43;2.00;;;15.60;1.00;;;;;;4982269;28;20549;-58
2022/09/10 04:08:54;;;;;;;2.53;1.77;;;15.60;1.00;;;;;;4978376;28;20568;-59
2022/09/10 04:11:26;;;;;;;11.53;3.00;;;16.50;1.00;;;;;;4981157;28;20632;-58
2022/09/10 04:13:52;;;;;;;2.50;1.97;;;15.60;1.00;;;;;;4980154;28;20460;-58
2022/09/10 04:16:17;;;;;;;2.53;1.80;;;15.80;1.00;;;;;;4979385;28;20453;-58
2022/09/10 04:18:43;;;;;;;3.20;1.53;;;15.70;1.00;;;;;;4981089;28;20896;-58
2022/09/10 04:21:23;;;;;;;2.53;2.33;;;15.70;1.00;;;;;;4983561;28;20227;-59
2022/09/10 04:23:53;;;;;;;4.63;2.20;;;15.70;1.00;;;;;;4978923;28;20194;-59
2022/09/10 04:26:22;;;;;;;2.47;1.90;;;15.70;1.00;;;;;;4980571;28;20449;-58
2022/09/10 04:28:48;;;;;;;1.93;1.83;;;15.70;1.00;;;;;;4986554;28;20481;-58
2022/09/10 04:31:23;;;;;;;3.27;2.07;;;15.70;1.00;;;;;;4990183;28;20957;-58
2022/09/10 04:33:48;;;;;;;3.17;1.80;;;15.60;1.00;;;;;;4983753;28;20450;-58
2022/09/10 04:36:24;;;;;;;3.33;1.80;;;15.60;1.00;;;;;;4979111;28;20939;-58
2022/09/10 04:38:49;;;;;;;3.57;1.87;;;15.60;1.00;;;;;;4980605;28;20536;-57
2022/09/10 04:41:18;;;;;;;2.90;1.70;;;15.60;1.00;;;;;;4964389;28;20464;-58
2022/09/10 04:43:45;;;;;;;3.53;2.13;;;15.60;1.00;;;;;;4987463;28;20273;-57
2022/09/10 04:46:26;;;;;;;5.03;2.03;;;15.60;1.00;;;;;;4982869;28;20456;-57
2022/09/10 04:48:53;;;;;;;2.20;2.00;;;15.60;1.00;;;;;;4992053;28;21008;-58
2022/09/10 04:51:27;;;;;;;3.13;2.00;;;15.60;1.00;;;;;;4989741;28;20434;-57
2022/09/10 04:53:53;;;;;;;3.33;2.07;;;15.60;1.00;;;;;;4988727;28;20432;-58
2022/09/10 04:56:22;;;;;;;3.57;2.23;;;15.60;1.00;;;;;;4991777;28;20536;-58
2022/09/10 04:58:47;;;;;;;5.40;2.40;;;15.60;1.00;;;;;;4989792;28;20476;-58
2022/09/10 05:01:30;;;;;;;4.07;2.13;;;15.60;1.00;;;;;;4985064;28;20492;-57
2022/09/10 05:03:55;;;;;;;3.53;2.37;;;15.70;1.00;;;;;;4985859;28;20687;-57
2022/09/10 05:06:24;;;;;;;4.30;2.90;;;15.70;1.00;;;;;;4986104;28;20445;-57
2022/09/10 05:08:49;;;;;;;4.97;2.10;;;15.70;1.00;;;;;;4990099;28;20209;-58
2022/09/10 05:11:30;;;;;;;7.30;2.43;;;15.80;1.00;;;;;;4986023;28;20964;-58
2022/09/10 05:13:57;;;;;;;2.77;2.50;;;15.80;1.00;;;;;;4982622;28;20188;-58
2022/09/10 05:16:22;;;;;;;4.23;2.67;;;15.70;1.00;;;;;;4988982;28;20570;-58
2022/09/10 05:18:48;;;;;;;2.60;2.20;;;15.80;1.00;;;;;;4980110;28;20588;-58
2022/09/10 05:21:29;;;;;;;4.50;2.67;;;15.80;1.00;;;;;;4967386;28;20203;-57
2022/09/10 05:23:55;;;;;;;3.20;2.30;;;15.80;1.00;;;;;;4982773;28;20648;-58
2022/09/10 05:26:33;;;;;;;2.53;2.30;;;15.90;1.00;;;;;;4989490;28;20466;-58
2022/09/10 05:28:59;;;;;;;5.60;2.60;;;15.90;1.00;;;;;;4983609;28;20222;-58
2022/09/10 05:31:24;;;;;;;2.67;1.97;;;16.00;1.00;;;;;;4983230;28;20449;-58
2022/09/10 05:33:50;;;;;;;3.80;2.23;;;16.00;1.00;;;;;;4986760;28;20217;-59
2022/09/10 05:36:24;;;;;;;5.47;2.10;;;16.00;1.00;;;;;;4986519;28;20191;-57
2022/09/10 05:38:50;;;;;;;2.63;2.33;;;16.10;1.00;;;;;;4969884;28;20194;-57
2022/09/10 05:41:42;;;;;;;2.27;2.07;;;16.30;1.00;;;;;;4986223;28;20550;-58
2022/09/10 05:44:07;;;;;;;7.43;2.73;;;16.30;1.00;;;;;;4982195;28;20206;-58
2022/09/10 05:46:33;;;;;;;4.30;2.50;;;16.40;1.00;;;;;;4985402;28;20453;-59
2022/09/10 05:48:59;;;;;;;4.00;2.43;;;16.40;1.00;;;;;;4984908;28;20255;-58
2022/09/10 05:51:29;;;;;;;4.17;2.43;;;16.50;1.00;;;;;;4988039;28;20183;-58
2022/09/10 05:53:56;;;;;;;4.67;2.13;;;16.70;1.00;;;;;;4988532;28;20663;-58
2022/09/10 05:56:24;;;;;;;3.70;2.20;;;16.80;1.00;;;;;;4988927;28;20423;-58
2022/09/10 05:58:49;;;;;;;3.43;2.90;;;16.80;1.00;;;;;;4981796;28;20418;-56
2022/09/10 06:01:33;;;;;;;4.43;2.47;;;16.90;1.00;;;;;;4988102;28;20422;-58
2022/09/10 06:04:00;;;;;;;3.30;2.37;;;17.00;1.00;;;;;;4987489;28;20559;-58
2022/09/10 06:06:26;;;;;;;3.27;2.07;;;17.10;1.00;;;;;;4983633;28;20461;-58
2022/09/10 06:08:55;;;;;;;3.07;2.50;;;17.20;1.00;;;;;;4985937;28;20829;-58
2022/09/10 06:11:33;;;;;;;3.53;2.37;;;17.30;1.00;;;;;;4987072;28;21006;-59
2022/09/10 06:13:58;;;;;;;6.47;2.20;;;17.50;1.00;;;;;;4987959;28;21008;-59
2022/09/10 06:16:25;;;;;;;2.30;2.10;;;17.60;1.00;;;;;;4990530;28;20408;-58
2022/09/10 06:18:51;;;;;;;2.73;2.50;;;17.70;1.00;;;;;;4991120;28;20190;-57
2022/09/10 06:21:26;;;;;;;7.00;3.40;;;17.90;1.00;;;;;;4988143;28;20440;-58
2022/09/10 06:23:53;;;;;;;3.13;2.10;;;18.20;1.00;;;;;;4987364;28;20423;-58
2022/09/10 06:26:28;;;;;;;3.60;1.90;;;18.50;1.00;;;;;;4990467;28;20441;-59
2022/09/10 06:28:55;;;;;;;4.43;2.00;;;18.60;1.00;;;;;;4987914;28;20507;-59
2022/09/10 06:31:22;;;;;;;3.43;2.30;;;18.70;1.00;;;;;;4986532;28;20449;-58
2022/09/10 06:33:47;;;;;;;1.60;1.43;;;18.70;1.00;;;;;;4985061;28;20465;-59
2022/09/10 06:36:32;;;;;;;4.20;2.03;;;19.80;1.00;;;;;;4990310;28;20436;-60
2022/09/10 06:38:58;;;;;;;2.10;1.50;;;18.60;1.00;;;;;;4989225;28;20221;-60
2022/09/10 06:41:25;;;;;;;4.90;1.90;;;18.50;1.00;;;;;;4988902;28;20567;-59
2022/09/10 06:43:51;;;;;;;3.23;1.60;;;18.50;1.00;;;;;;4983388;28;20464;-60
2022/09/10 06:46:22;;;;;;;4.80;2.23;;;18.60;1.00;;;;;;4985857;28;20926;-57
2022/09/10 06:48:48;;;;;;;2.30;0.97;;;18.90;1.00;;;;;;4993931;28;20575;-57
2022/09/10 06:51:28;;;;;;;2.57;1.27;;;19.20;1.00;;;;;;4986573;28;20429;-58
2022/09/10 06:53:54;;;;;;;1.27;0.90;;;19.50;1.00;;;;;;4988511;28;20685;-59
2022/09/10 06:56:24;;;;;;;1.47;0.90;;;19.80;1.00;;;;;;4987053;28;20420;-57
2022/09/10 06:58:49;;;;;;;1.43;1.00;;;19.70;1.00;;;;;;4987251;28;20440;-57
2022/09/10 07:01:21;;;;;;;1.80;1.07;;;19.60;1.00;;;;;;4986693;28;20448;-58
2022/09/10 07:03:47;;;;;;;1.40;1.03;;;19.50;1.00;;;;;;4989861;28;20417;-58
2022/09/10 07:06:25;;;;;;;1.87;0.80;;;19.50;1.00;;;;;;4990273;28;20913;-57
2022/09/10 07:08:55;;;;;;;2.03;0.97;;;19.50;1.00;;;;;;4993146;28;20238;-57
2022/09/10 07:11:21;;;;;;;2.00;0.97;;;19.60;1.00;;;;;;4993848;28;20520;-58
2022/09/10 07:13:51;;;;;;;1.27;0.93;;;19.80;1.00;;;;;;4991618;28;20540;-58
2022/09/10 07:16:20;;;;;;;0.90;0.80;;;19.80;1.00;;;;;;4990211;28;20464;-58
2022/09/10 07:18:48;;;;;;;1.60;0.87;;;20.00;1.00;;;;;;4997150;28;20419;-59
2022/09/10 07:21:22;;;;;;;2.20;1.13;;;20.20;1.00;;;;;;4994763;28;20496;-57
2022/09/10 07:23:50;;;;;;;3.00;1.37;;;20.30;1.00;;;;;;4992647;28;20495;-58
2022/09/10 07:26:26;;;;;;;1.20;0.80;;;20.40;1.00;;;;;;4989437;28;20558;-57
2022/09/10 07:28:52;;;;;;;1.30;0.83;;;20.50;1.00;;;;;;4995109;28;20449;-57
2022/09/10 07:31:32;;;;;;;2.37;0.70;;;20.60;1.00;;;;;;4994202;28;20441;-57
2022/09/10 07:34:01;;;;;;;1.20;0.77;;;20.60;1.00;;;;;;4977611;28;20445;-58
2022/09/10 07:36:27;;;;;;;0.80;0.70;;;20.40;1.00;;;;;;4994450;28;20975;-57
2022/09/10 07:39:02;;;;;;;1.63;0.73;;;20.10;1.00;;;;;;4990995;28;20962;-58
2022/09/10 07:41:33;;;;;;;1.90;1.10;;;19.90;1.00;;;;;;4988273;28;20484;-58
2022/09/10 07:43:58;;;;;;;1.53;0.90;;;20.20;1.00;;;;;;4992671;28;20511;-57
2022/09/10 07:46:45;;;;;;;1.00;0.90;;;20.30;1.00;;;;;;4995308;28;20530;-57
2022/09/10 07:49:11;;;;;;;1.30;0.67;;;20.40;1.00;;;;;;4988443;28;20211;-57
2022/09/10 07:51:38;;;;;;;1.90;1.20;;;20.30;1.00;;;;;;4996080;28;20450;-57
2022/09/10 07:54:04;;;;;;;0.93;0.80;;;20.40;1.00;;;;;;4994412;28;20473;-57
2022/09/10 07:56:33;;;;;;;3.53;1.13;;;20.50;1.00;;;;;;4990601;28;20477;-57
2022/09/10 07:58:58;;;;;;;2.70;0.90;;;20.60;1.00;;;;;;4977868;28;20488;-57
2022/09/10 08:01:30;;;;;;;1.50;0.80;;;20.60;1.00;;;;;;5004657;28;20864;-58
2022/09/10 08:03:57;;;;;;;1.27;0.80;;;20.70;1.00;;;;;;4990505;28;20209;-59
2022/09/10 08:06:23;;;;;;;0.93;0.80;;;20.70;1.00;;;;;;4991785;28;20450;-57
2022/09/10 08:08:49;;;;;;;1.20;0.90;;;20.50;1.00;;;;;;4985364;28;20482;-58
2022/09/10 08:11:24;;;;;;;1.30;0.90;;;20.30;1.00;;;;;;4991838;28;20517;-59
2022/09/10 08:13:52;;;;;;;1.33;1.00;;;20.50;1.00;;;;;;4995362;28;20659;-58
2022/09/10 08:16:27;;;;;;;2.00;1.07;;;20.50;1.00;;;;;;4992486;28;20503;-57
2022/09/10 08:18:57;;;;;;;1.90;1.10;;;20.60;1.00;;;;;;4989690;28;20448;-57
2022/09/10 08:21:23;;;;;;;1.97;1.40;;;20.90;1.00;;;;;;4990375;28;20857;-57
2022/09/10 08:23:52;;;;;;;1.80;1.00;;;21.00;1.00;;;;;;4984811;28;20428;-56
2022/09/10 08:26:23;;;;;;;1.80;1.00;;;21.00;1.00;;;;;;4992074;28;20475;-57
2022/09/10 08:28:54;;;;;;;1.70;0.77;;;21.00;1.00;;;;;;4989246;28;20447;-58
2022/09/10 08:31:38;;;;;;;2.27;1.03;;;21.10;1.00;;;;;;4990306;28;20453;-56
2022/09/10 08:34:04;;;;;;;3.60;3.13;;;21.20;1.00;;;;;;4989826;28;20453;-57
2022/09/10 08:36:30;;;;;;;7.60;6.80;;;21.10;1.00;;;;;;4993110;28;20458;-58
2022/09/10 08:38:55;;;;;;;4.63;1.40;;;21.10;1.00;;;;;;5006112;28;20212;-57
2022/09/10 08:41:37;;;;;;;3.50;3.10;;;21.30;1.00;;;;;;4992323;28;20241;-58
2022/09/10 08:44:20;;;;;;;3.70;2.20;;;21.40;1.00;;;;;;4994004;28;20579;-57
2022/09/10 08:47:19;;;;;;;5.57;4.70;;;21.30;1.00;;;;;;4987228;28;20416;-57
2022/09/10 08:49:47;;;;;;;2.93;1.87;;;21.50;1.00;;;;;;4989232;28;20460;-55
2022/09/10 08:52:37;;;;;;;11.60;10.40;;;21.50;1.00;;;;;;4999227;28;20444;-55
2022/09/10 08:55:15;;;;;;;4.00;2.93;;;21.70;1.00;;;;;;4989389;28;20458;-55
2022/09/10 08:57:46;;;;;;;2.23;1.50;;;21.90;1.00;;;;;;4988014;28;20423;-55
2022/09/10 09:00:20;;;;;;;4.27;1.13;;;21.90;1.00;;;;;;4972107;28;20429;-56
2022/09/10 09:03:08;;;;;;;1.07;0.97;;;21.90;1.00;;;;;;4990588;28;20483;-55
2022/09/10 09:05:52;;;;;;;1.90;1.10;;;22.10;1.00;;;;;;4992636;28;20532;-55
2022/09/10 09:08:24;;;;;;;2.13;1.00;;;21.80;1.00;;;;;;4987622;28;20536;-56
2022/09/10 09:11:21;;;;;;;3.37;1.33;;;21.80;1.00;;;;;;4973156;28;20971;-55
2022/09/10 09:14:24;;;;;;;1.43;1.23;;;21.00;1.00;;;;;;4974127;28;20474;-56
2022/09/10 09:17:18;;;;;;;2.20;1.13;;;21.30;1.00;;;;;;4989390;28;20419;-55
2022/09/10 09:20:14;;;;;;;3.70;0.80;;;21.20;1.00;;;;;;4986161;28;20450;-55
2022/09/10 09:22:52;;;;;;;2.40;1.30;;;21.10;1.00;;;;;;4987366;28;20490;-55
2022/09/10 09:25:28;;;;;;;2.07;1.27;;;21.20;1.00;;;;;;4985693;28;20507;-55
2022/09/10 09:27:56;;;;;;;1.10;0.80;;;21.20;1.00;;;;;;4988646;28;20901;-55
2022/09/10 09:30:36;;;;;;;1.47;0.70;;;21.10;1.00;;;;;;4992163;28;20447;-57
2022/09/10 09:33:11;;;;;;;1.67;0.93;;;21.60;1.00;;;;;;4989310;28;20541;-55
2022/09/10 09:35:54;;;;;;;1.47;0.97;;;21.50;1.00;;;;;;4990588;28;20466;-54
2022/09/10 09:38:31;;;;;;;1.43;1.00;;;21.80;1.00;;;;;;4989103;28;20429;-56
2022/09/10 09:41:06;;;;;;;1.70;1.10;;;22.00;1.00;;;;;;4988924;28;20424;-56
2022/09/10 09:44:14;;;;;;;0.90;0.70;;;22.20;1.00;;;;;;4991292;28;20425;-54
2022/09/10 09:46:41;;;;;;;1.83;1.03;;;22.50;1.00;;;;;;4990864;28;20467;-55
2022/09/10 09:49:15;;;;;;;1.03;0.80;;;23.00;1.00;;;;;;4992136;28;20464;-55
2022/09/10 09:51:44;;;;;;;2.10;0.93;;;23.20;1.00;;;;;;4986302;28;20941;-55
2022/09/10 09:54:23;;;;;;;2.77;1.00;;;23.60;1.00;;;;;;4988023;28;20480;-54
2022/09/10 09:56:50;;;;;;;1.47;1.10;;;23.60;1.00;;;;;;4988385;28;20514;-57
2022/09/10 09:59:33;;;;;;;1.37;0.83;;;23.70;1.00;;;;;;4990158;28;20498;-53
2022/09/10 10:02:11;;;;;;;2.47;1.13;;;23.70;1.00;;;;;;4986718;28;20452;-56
2022/09/10 10:04:40;;;;;;;1.80;1.10;;;23.50;1.00;;;;;;4986316;28;20544;-54
2022/09/10 10:07:06;;;;;;;1.70;0.60;;;23.10;1.00;;;;;;4991614;28;20757;-53
2022/09/10 10:09:42;;;;;;;2.00;1.10;;;22.80;1.00;;;;;;4967766;28;20471;-56
2022/09/10 10:12:18;;;;;;;2.83;1.43;;;22.60;1.00;;;;;;4986669;28;20424;-53
2022/09/10 10:14:44;;;;;;;1.07;0.60;;;22.90;1.00;;;;;;4996551;28;20927;-55
2022/09/10 10:17:35;;;;;;;1.63;0.77;;;23.40;1.00;;;;;;5000333;28;20418;-54
2022/09/10 10:20:10;;;;;;;3.03;1.00;;;24.10;1.00;;;;;;4990485;28;20187;-55
2022/09/10 10:22:37;;;;;;;2.43;0.80;;;24.20;1.00;;;;;;4979205;28;20448;-54
2022/09/10 10:25:24;;;;;;;2.97;1.00;;;24.30;1.00;;;;;;4980076;28;20458;-55
2022/09/10 10:27:53;;;;;;;2.37;0.80;;;24.10;1.00;;;;;;4986396;28;20470;-55
2022/09/10 10:30:21;;;;;;;1.90;1.00;;;23.90;1.00;;;;;;4985090;28;20943;-54
2022/09/10 10:32:54;;;;;;;1.00;0.90;;;24.00;1.00;;;;;;4987727;28;20412;-57
2022/09/10 10:35:33;;;;;;;3.90;0.80;;;23.80;1.00;;;;;;4986315;28;20462;-54
2022/09/10 10:38:25;;;;;;;1.90;0.90;;;24.00;1.00;;;;;;4989547;28;20451;-54
2022/09/10 10:40:55;;;;;;;1.70;0.90;;;23.90;1.00;;;;;;4993628;28;20452;-56
2022/09/10 10:43:34;;;;;;;1.77;0.90;;;23.70;1.00;;;;;;4988432;28;20451;-54
2022/09/10 10:46:22;;;;;;;1.93;0.90;;;23.40;1.00;;;;;;4995217;28;20448;-54
2022/09/10 10:49:28;;;;;;;1.30;0.77;;;23.40;1.00;;;;;;4992197;28;20477;-53
2022/09/10 10:52:14;;;;;;;4.00;0.90;;;24.00;1.00;;;;;;4914087;28;20946;-57
2022/09/10 10:55:10;;;;;;;2.00;1.13;;;24.90;1.00;;;;;;4990022;28;20533;-56
2022/09/10 10:57:54;;;;;;;2.60;0.80;;;25.20;1.00;;;;;;4986607;28;20434;-55
2022/09/10 11:00:20;;;;;;;2.60;0.97;;;25.10;1.00;;;;;;4992253;28;20782;-54
2022/09/10 11:03:08;;;;;;;1.73;0.90;;;24.30;1.00;;;;;;4973576;28;21224;-55
2022/09/10 11:05:37;;;;;;;3.80;1.00;;;23.70;1.00;;;;;;4996873;28;20461;-55
2022/09/10 11:08:14;;;;;;;3.23;1.07;;;23.40;1.00;;;;;;4993117;28;20587;-54
2022/09/10 11:10:49;;;;;;;1.27;0.70;;;23.20;1.00;;;;;;4994179;28;20465;-55
2022/09/10 11:13:53;;;;;;;2.80;1.27;;;22.90;1.00;;;;;;4990852;28;20423;-53
2022/09/10 11:16:31;;;;;;;1.37;1.00;;;22.80;1.00;;;;;;4993073;28;20463;-55
2022/09/10 11:19:16;;;;;;;3.80;1.23;;;22.80;1.00;;;;;;4991372;28;20481;-54
2022/09/10 11:21:48;;;;;;;1.33;1.10;;;22.90;1.00;;;;;;4993919;28;20913;-53
2022/09/10 11:24:21;;;;;;;1.60;0.90;;;23.50;1.00;;;;;;4994712;28;20419;-53
2022/09/10 11:26:53;;;;;;;1.97;0.80;;;24.00;1.00;;;;;;4993102;28;20420;-54
2022/09/10 11:29:58;;;;;;;1.47;0.97;;;24.20;1.00;;;;;;4993302;28;20441;-54
2022/09/10 11:32:41;;;;;;;3.30;1.50;;;24.30;1.00;;;;;;4992065;28;20607;-53
2022/09/10 11:35:20;;;;;;;3.80;1.90;;;23.90;1.00;;;;;;4991574;28;20438;-55
2022/09/10 11:38:03;;;;;;;1.90;1.20;;;23.20;1.00;;;;;;4976474;28;20442;-59
2022/09/10 11:41:25;;;;;;;1.50;1.00;;;23.10;1.00;;;;;;4994123;28;20933;-56
2022/09/10 11:44:15;;;;;;;2.53;1.40;;;22.90;1.00;;;;;;4954724;28;20457;-54
2022/09/10 11:47:11;;;;;;;1.40;0.97;;;22.60;1.00;;;;;;4993048;28;20412;-55
2022/09/10 11:50:05;;;;;;;2.00;1.00;;;22.30;1.00;;;;;;4992001;28;20532;-56
2022/09/10 11:52:33;;;;;;;2.97;1.10;;;22.40;1.00;;;;;;4993078;28;20413;-55
2022/09/10 11:55:02;;;;;;;3.03;1.10;;;22.70;1.00;;;;;;4993543;28;20437;-55
2022/09/10 11:57:47;;;;;;;1.50;1.00;;;23.00;1.00;;;;;;4993004;28;20412;-54
2022/09/10 12:00:19;;;;;;;1.97;0.93;;;23.30;1.00;;;;;;4993337;28;20411;-55
2022/09/10 12:02:54;;;;;;;1.10;0.90;;;23.10;1.00;;;;;;4992004;28;20511;-55
2022/09/10 12:06:22;;;;;;;1.70;1.00;;;22.70;1.00;;;;;;4992889;28;20931;-54
2022/09/10 12:09:12;;;;;;;2.10;1.50;;;22.70;1.00;;;;;;4894494;29;20547;-56
2022/09/10 12:11:52;;;;;;;1.30;1.13;;;22.60;1.00;;;;;;4894538;29;20442;-54
2022/09/10 12:14:20;;;;;;;1.97;1.43;;;22.60;1.00;;;;;;4970172;28;20446;-54
2022/09/10 12:16:57;;;;;;;1.87;1.00;;;22.60;1.00;;;;;;4992917;28;20516;-55
2022/09/10 12:19:30;;;;;;;2.23;1.00;;;22.40;1.00;;;;;;4992662;28;20473;-55
2022/09/10 12:22:28;;;;;;;1.93;1.07;;;22.50;1.00;;;;;;4992897;28;20411;-56
2022/09/10 12:25:08;;;;;;;2.27;1.10;;;22.70;1.00;;;;;;4992640;28;20420;-54
2022/09/10 12:27:43;;;;;;;3.30;1.00;;;23.10;1.00;;;;;;4992683;28;20447;-56
2022/09/10 12:30:26;;;;;;;2.43;1.10;;;23.60;1.00;;;;;;4993124;28;20401;-54
2022/09/10 12:32:53;;;;;;;2.37;1.07;;;23.70;1.00;;;;;;4991696;28;20532;-55
2022/09/10 12:35:31;;;;;;;1.80;1.00;;;23.90;1.00;;;;;;4992759;28;20858;-55
2022/09/10 12:38:35;;;;;;;2.60;1.10;;;24.00;1.00;;;;;;4992165;28;20901;-56
2022/09/10 12:41:03;;;;;;;1.43;1.00;;;23.60;1.00;;;;;;4991981;28;20525;-55
2022/09/10 12:43:38;;;;;;;1.63;0.90;;;23.30;1.00;;;;;;4992579;28;20447;-53
2022/09/10 12:46:24;;;;;;;2.03;1.23;;;22.80;1.00;;;;;;4992197;28;20432;-55
2022/09/10 12:49:04;;;;;;;2.70;1.20;;;22.70;1.00;;;;;;4992096;28;20535;-57
2022/09/10 12:51:45;;;;;;;1.37;1.07;;;22.50;1.00;;;;;;4992491;28;20441;-56
2022/09/10 12:54:19;;;;;;;1.60;1.23;;;22.50;1.00;;;;;;4992179;28;20483;-56
2022/09/10 12:57:14;;;;;;;2.43;1.20;;;22.80;1.00;;;;;;4992051;28;20408;-55
2022/09/10 12:59:40;;;;;;;1.47;1.17;;;22.80;1.00;;;;;;4989525;28;20496;-54
2022/09/10 13:02:30;;;;;;;3.00;1.60;;;23.30;1.00;;;;;;4990757;28;20433;-54
2022/09/10 13:05:05;;;;;;;2.80;0.93;;;23.70;1.00;;;;;;4991485;28;20186;-55
2022/09/10 13:07:40;;;;;;;2.13;1.40;;;24.20;1.00;;;;;;4992183;28;20973;-56
2022/09/10 13:10:16;;;;;;;2.50;0.90;;;24.30;1.00;;;;;;4990724;28;20555;-54
2022/09/10 13:12:43;;;;;;;2.80;1.20;;;24.30;1.00;;;;;;4991968;28;20872;-54
2022/09/10 13:15:34;;;;;;;1.73;1.07;;;24.30;1.00;;;;;;4991474;28;20902;-55
2022/09/10 13:18:00;;;;;;;2.90;1.63;;;;;;;;;;4991501;28;20468;-54
2022/09/10 13:20:26;;;;;;;2.53;1.00;;;24.70;1.00;;;;;;4988495;28;20484;-54
2022/09/10 13:23:18;;;;;;;2.43;1.00;;;24.50;1.00;;;;;;4991550;28;20899;-55
2022/09/10 13:25:46;;;;;;;1.90;1.00;;;24.30;1.00;;;;;;4991452;28;20222;-56
2022/09/10 13:28:30;;;;;;;1.23;0.97;;;23.90;1.00;;;;;;4990820;28;20944;-56
2022/09/10 13:31:07;;;;;;;1.30;1.17;;;24.10;1.00;;;;;;4992407;28;20918;-56
2022/09/10 13:34:06;;;;;;;1.67;0.77;;;24.10;1.00;;;;;;4990649;28;20585;-54